sensor_id;sensor_type;location;lat;lon;timestamp;temperature;humidity
17483;DHT22;8858;52.308;20.994;2023-07-09T00:02:24;19.60;99.90
17483;DHT22;8858;52.308;20.994;2023-07-09T00:04:53;19.60;99.90
17483;DHT22;8858;52.308;20.994;2023-07-09T00:07:27;19.50;99.90
17483;DHT22;8858;52.308;20.994;2023-07-09T00:09:57;19.50;99.90
17483;DHT22;8858;52.308;20.994;2023-07-09T00:12:27;19.50;99.90
17483;DHT22;8858;52.308;20.994;2023-07-09T00:14:57;19.40;99.90
17483;DHT22;8858;52.308;20.994;2023-07-09T00:17:27;19.40;99.90
17483;DHT22;8858;52.308;20.994;2023-07-09T00:19:58;19.30;99.90
17483;DHT22;8858;52.308;20.994;2023-07-09T00:22:27;19.30;99.90
17483;DHT22;8858;52.308;20.994;2023-07-09T00:24:55;19.30;99.90
17483;DHT22;8858;52.308;20.994;2023-07-09T00:27:29;19.20;99.90
17483;DHT22;8858;52.308;20.994;2023-07-09T00:29:58;19.20;99.90
17483;DHT22;8858;52.308;20.994;2023-07-09T00:32:28;19.20;99.90
17483;DHT22;8858;52.308;20.994;2023-07-09T00:34:56;19.20;99.90
17483;DHT22;8858;52.308;20.994;2023-07-09T00:37:25;19.10;99.90
17483;DHT22;8858;52.308;20.994;2023-07-09T00:39:56;19.10;99.90
17483;DHT22;8858;52.308;20.994;2023-07-09T00:42:25;19.00;99.90
17483;DHT22;8858;52.308;20.994;2023-07-09T00:44:55;19.00;99.90
17483;DHT22;8858;52.308;20.994;2023-07-09T00:47:28;19.00;99.90
17483;DHT22;8858;52.308;20.994;2023-07-09T00:50:06;19.00;99.90
17483;DHT22;8858;52.308;20.994;2023-07-09T00:52:41;18.90;99.90
17483;DHT22;8858;52.308;20.994;2023-07-09T00:55:16;18.90;99.90
17483;DHT22;8858;52.308;20.994;2023-07-09T00:57:48;18.80;99.90
17483;DHT22;8858;52.308;20.994;2023-07-09T01:00:33;18.80;99.90
17483;DHT22;8858;52.308;20.994;2023-07-09T01:03:12;18.80;99.90
17483;DHT22;8858;52.308;20.994;2023-07-09T01:05:45;18.70;99.90
17483;DHT22;8858;52.308;20.994;2023-07-09T01:08:22;18.70;99.90
17483;DHT22;8858;52.308;20.994;2023-07-09T01:10:50;18.60;99.90
17483;DHT22;8858;52.308;20.994;2023-07-09T01:13:18;18.60;99.90
17483;DHT22;8858;52.308;20.994;2023-07-09T01:15:53;18.60;99.90
17483;DHT22;8858;52.308;20.994;2023-07-09T01:18:23;18.50;99.90
17483;DHT22;8858;52.308;20.994;2023-07-09T01:21:01;18.50;99.90
17483;DHT22;8858;52.308;20.994;2023-07-09T01:23:30;18.40;99.90
17483;DHT22;8858;52.308;20.994;2023-07-09T01:26:00;18.40;99.90
17483;DHT22;8858;52.308;20.994;2023-07-09T01:28:28;18.30;99.90
17483;DHT22;8858;52.308;20.994;2023-07-09T01:30:56;18.30;99.90
17483;DHT22;8858;52.308;20.994;2023-07-09T01:33:27;18.20;99.90
17483;DHT22;8858;52.308;20.994;2023-07-09T01:35:56;18.20;99.90
17483;DHT22;8858;52.308;20.994;2023-07-09T01:38:27;18.20;99.90
17483;DHT22;8858;52.308;20.994;2023-07-09T01:40:57;18.10;99.90
17483;DHT22;8858;52.308;20.994;2023-07-09T01:43:28;18.10;99.90
17483;DHT22;8858;52.308;20.994;2023-07-09T01:45:57;18.00;99.90
17483;DHT22;8858;52.308;20.994;2023-07-09T01:48:26;18.00;99.90
17483;DHT22;8858;52.308;20.994;2023-07-09T01:50:56;18.00;99.90
17483;DHT22;8858;52.308;20.994;2023-07-09T01:53:26;17.90;99.90
17483;DHT22;8858;52.308;20.994;2023-07-09T01:56:01;17.90;99.90
17483;DHT22;8858;52.308;20.994;2023-07-09T01:58:30;17.90;99.90
17483;DHT22;8858;52.308;20.994;2023-07-09T02:00:59;17.80;99.90
17483;DHT22;8858;52.308;20.994;2023-07-09T02:03:30;17.80;99.90
17483;DHT22;8858;52.308;20.994;2023-07-09T02:06:00;17.80;99.90
17483;DHT22;8858;52.308;20.994;2023-07-09T02:08:31;17.80;99.90
17483;DHT22;8858;52.308;20.994;2023-07-09T02:10:59;17.70;99.90
17483;DHT22;8858;52.308;20.994;2023-07-09T02:13:28;17.70;99.90
17483;DHT22;8858;52.308;20.994;2023-07-09T02:15:56;17.60;99.90
17483;DHT22;8858;52.308;20.994;2023-07-09T02:18:27;17.60;99.90
17483;DHT22;8858;52.308;20.994;2023-07-09T02:20:56;17.60;99.90
17483;DHT22;8858;52.308;20.994;2023-07-09T02:23:28;17.60;99.90
17483;DHT22;8858;52.308;20.994;2023-07-09T02:26:00;17.50;99.90
17483;DHT22;8858;52.308;20.994;2023-07-09T02:28:29;17.50;99.90
17483;DHT22;8858;52.308;20.994;2023-07-09T02:30:59;17.50;99.90
17483;DHT22;8858;52.308;20.994;2023-07-09T02:33:30;17.40;99.90
17483;DHT22;8858;52.308;20.994;2023-07-09T02:36:00;17.40;99.90
17483;DHT22;8858;52.308;20.994;2023-07-09T02:38:30;17.40;99.90
17483;DHT22;8858;52.308;20.994;2023-07-09T02:41:00;17.40;99.90
17483;DHT22;8858;52.308;20.994;2023-07-09T02:43:28;17.30;99.90
17483;DHT22;8858;52.308;20.994;2023-07-09T02:46:01;17.30;99.90
17483;DHT22;8858;52.308;20.994;2023-07-09T02:48:31;17.30;99.90
17483;DHT22;8858;52.308;20.994;2023-07-09T02:51:00;17.20;99.90
17483;DHT22;8858;52.308;20.994;2023-07-09T02:53:31;17.30;99.90
17483;DHT22;8858;52.308;20.994;2023-07-09T02:55:59;17.30;99.90
17483;DHT22;8858;52.308;20.994;2023-07-09T02:58:32;17.20;99.90
17483;DHT22;8858;52.308;20.994;2023-07-09T03:01:00;17.20;99.90
17483;DHT22;8858;52.308;20.994;2023-07-09T03:03:55;17.20;99.90
17483;DHT22;8858;52.308;20.994;2023-07-09T03:06:26;17.20;99.90
17483;DHT22;8858;52.308;20.994;2023-07-09T03:08:57;17.20;99.90
17483;DHT22;8858;52.308;20.994;2023-07-09T03:11:25;17.20;99.90
17483;DHT22;8858;52.308;20.994;2023-07-09T03:13:55;17.20;99.90
17483;DHT22;8858;52.308;20.994;2023-07-09T03:16:25;17.20;99.90
17483;DHT22;8858;52.308;20.994;2023-07-09T03:18:54;17.20;99.90
17483;DHT22;8858;52.308;20.994;2023-07-09T03:21:24;17.10;99.90
17483;DHT22;8858;52.308;20.994;2023-07-09T03:23:53;17.10;99.90
17483;DHT22;8858;52.308;20.994;2023-07-09T03:26:24;17.10;99.90
17483;DHT22;8858;52.308;20.994;2023-07-09T03:28:53;17.10;99.90
17483;DHT22;8858;52.308;20.994;2023-07-09T03:31:22;17.10;99.90
17483;DHT22;8858;52.308;20.994;2023-07-09T03:33:51;17.10;99.90
17483;DHT22;8858;52.308;20.994;2023-07-09T03:36:21;17.20;99.90
17483;DHT22;8858;52.308;20.994;2023-07-09T03:38:50;17.20;99.90
17483;DHT22;8858;52.308;20.994;2023-07-09T03:41:19;17.20;99.90
17483;DHT22;8858;52.308;20.994;2023-07-09T03:43:48;17.20;99.90
17483;DHT22;8858;52.308;20.994;2023-07-09T03:46:21;17.20;99.90
17483;DHT22;8858;52.308;20.994;2023-07-09T03:48:49;17.20;99.90
17483;DHT22;8858;52.308;20.994;2023-07-09T03:51:18;17.30;99.90
17483;DHT22;8858;52.308;20.994;2023-07-09T03:53:46;17.30;99.90
17483;DHT22;8858;52.308;20.994;2023-07-09T03:56:14;17.40;99.90
17483;DHT22;8858;52.308;20.994;2023-07-09T03:58:43;17.40;99.90
17483;DHT22;8858;52.308;20.994;2023-07-09T04:01:13;17.50;99.90
17483;DHT22;8858;52.308;20.994;2023-07-09T04:03:45;17.50;99.90
17483;DHT22;8858;52.308;20.994;2023-07-09T04:06:14;17.60;99.90
17483;DHT22;8858;52.308;20.994;2023-07-09T04:09:11;17.60;99.90
17483;DHT22;8858;52.308;20.994;2023-07-09T04:11:39;17.60;99.90
17483;DHT22;8858;52.308;20.994;2023-07-09T04:14:08;17.70;99.90
17483;DHT22;8858;52.308;20.994;2023-07-09T04:16:38;17.80;99.90
17483;DHT22;8858;52.308;20.994;2023-07-09T04:19:11;17.80;99.90
17483;DHT22;8858;52.308;20.994;2023-07-09T04:21:39;17.90;99.90
17483;DHT22;8858;52.308;20.994;2023-07-09T04:24:08;17.90;99.90
17483;DHT22;8858;52.308;20.994;2023-07-09T04:26:37;18.00;99.90
17483;DHT22;8858;52.308;20.994;2023-07-09T04:29:06;18.00;99.90
17483;DHT22;8858;52.308;20.994;2023-07-09T04:31:39;18.10;99.90
17483;DHT22;8858;52.308;20.994;2023-07-09T04:34:08;18.10;99.90
17483;DHT22;8858;52.308;20.994;2023-07-09T04:36:37;18.20;99.90
17483;DHT22;8858;52.308;20.994;2023-07-09T04:39:05;18.30;99.90
17483;DHT22;8858;52.308;20.994;2023-07-09T04:41:34;18.30;99.90
17483;DHT22;8858;52.308;20.994;2023-07-09T04:44:03;18.40;99.90
17483;DHT22;8858;52.308;20.994;2023-07-09T04:46:31;18.50;99.90
17483;DHT22;8858;52.308;20.994;2023-07-09T04:49:03;18.50;99.90
17483;DHT22;8858;52.308;20.994;2023-07-09T04:51:32;18.60;99.90
17483;DHT22;8858;52.308;20.994;2023-07-09T04:54:00;18.70;99.90
17483;DHT22;8858;52.308;20.994;2023-07-09T04:56:35;18.70;99.90
17483;DHT22;8858;52.308;20.994;2023-07-09T04:59:04;18.80;99.90
17483;DHT22;8858;52.308;20.994;2023-07-09T05:01:33;18.90;99.90
17483;DHT22;8858;52.308;20.994;2023-07-09T05:04:03;19.00;99.90
17483;DHT22;8858;52.308;20.994;2023-07-09T05:06:32;19.10;99.90
17483;DHT22;8858;52.308;20.994;2023-07-09T05:09:05;19.30;99.90
17483;DHT22;8858;52.308;20.994;2023-07-09T05:11:35;19.40;99.90
17483;DHT22;8858;52.308;20.994;2023-07-09T05:14:10;19.50;99.90
17483;DHT22;8858;52.308;20.994;2023-07-09T05:16:40;19.70;99.90
17483;DHT22;8858;52.308;20.994;2023-07-09T05:19:09;19.80;99.90
17483;DHT22;8858;52.308;20.994;2023-07-09T05:21:38;19.90;99.90
17483;DHT22;8858;52.308;20.994;2023-07-09T05:24:07;20.00;99.90
17483;DHT22;8858;52.308;20.994;2023-07-09T05:26:40;20.10;99.90
17483;DHT22;8858;52.308;20.994;2023-07-09T05:29:10;20.20;99.90
17483;DHT22;8858;52.308;20.994;2023-07-09T05:31:43;20.40;99.90
17483;DHT22;8858;52.308;20.994;2023-07-09T05:34:12;20.40;99.90
17483;DHT22;8858;52.308;20.994;2023-07-09T05:36:41;20.50;99.90
17483;DHT22;8858;52.308;20.994;2023-07-09T05:39:10;20.60;99.90
17483;DHT22;8858;52.308;20.994;2023-07-09T05:41:39;20.70;99.90
17483;DHT22;8858;52.308;20.994;2023-07-09T05:44:10;20.70;99.90
17483;DHT22;8858;52.308;20.994;2023-07-09T05:46:39;20.80;99.90
17483;DHT22;8858;52.308;20.994;2023-07-09T05:49:07;20.90;99.90
17483;DHT22;8858;52.308;20.994;2023-07-09T05:51:39;21.00;99.90
17483;DHT22;8858;52.308;20.994;2023-07-09T05:54:08;21.10;99.90
17483;DHT22;8858;52.308;20.994;2023-07-09T05:56:38;21.20;99.90
17483;DHT22;8858;52.308;20.994;2023-07-09T05:59:07;21.30;99.90
17483;DHT22;8858;52.308;20.994;2023-07-09T06:01:37;21.40;99.90
17483;DHT22;8858;52.308;20.994;2023-07-09T06:04:06;21.50;99.90
17483;DHT22;8858;52.308;20.994;2023-07-09T06:06:34;21.50;99.90
17483;DHT22;8858;52.308;20.994;2023-07-09T06:09:08;21.60;99.90
17483;DHT22;8858;52.308;20.994;2023-07-09T06:11:36;21.60;99.90
17483;DHT22;8858;52.308;20.994;2023-07-09T06:14:05;21.70;99.90
17483;DHT22;8858;52.308;20.994;2023-07-09T06:16:35;21.70;99.90
17483;DHT22;8858;52.308;20.994;2023-07-09T06:19:04;21.80;99.90
17483;DHT22;8858;52.308;20.994;2023-07-09T06:21:39;21.90;99.90
17483;DHT22;8858;52.308;20.994;2023-07-09T06:24:09;21.90;99.90
17483;DHT22;8858;52.308;20.994;2023-07-09T06:26:38;22.00;99.90
17483;DHT22;8858;52.308;20.994;2023-07-09T06:29:06;22.10;99.90
17483;DHT22;8858;52.308;20.994;2023-07-09T06:31:35;22.20;99.90
17483;DHT22;8858;52.308;20.994;2023-07-09T06:34:04;22.20;99.90
17483;DHT22;8858;52.308;20.994;2023-07-09T06:36:34;22.30;99.90
17483;DHT22;8858;52.308;20.994;2023-07-09T06:39:04;22.30;99.90
17483;DHT22;8858;52.308;20.994;2023-07-09T06:41:34;22.40;99.90
17483;DHT22;8858;52.308;20.994;2023-07-09T06:44:24;22.40;99.90
17483;DHT22;8858;52.308;20.994;2023-07-09T06:46:53;22.60;99.90
17483;DHT22;8858;52.308;20.994;2023-07-09T06:49:22;22.50;99.90
17483;DHT22;8858;52.308;20.994;2023-07-09T06:51:50;22.60;99.90
17483;DHT22;8858;52.308;20.994;2023-07-09T06:54:18;22.70;99.90
17483;DHT22;8858;52.308;20.994;2023-07-09T06:56:52;22.70;99.90
17483;DHT22;8858;52.308;20.994;2023-07-09T06:59:20;22.80;99.90
17483;DHT22;8858;52.308;20.994;2023-07-09T07:01:48;22.80;99.90
17483;DHT22;8858;52.308;20.994;2023-07-09T07:04:18;22.90;99.90
17483;DHT22;8858;52.308;20.994;2023-07-09T07:06:46;23.00;99.90
17483;DHT22;8858;52.308;20.994;2023-07-09T07:09:16;23.10;99.90
17483;DHT22;8858;52.308;20.994;2023-07-09T07:11:45;23.20;99.90
17483;DHT22;8858;52.308;20.994;2023-07-09T07:14:15;23.20;99.90
17483;DHT22;8858;52.308;20.994;2023-07-09T07:16:45;23.20;99.90
17483;DHT22;8858;52.308;20.994;2023-07-09T07:19:13;23.30;99.90
17483;DHT22;8858;52.308;20.994;2023-07-09T07:21:41;23.40;99.90
17483;DHT22;8858;52.308;20.994;2023-07-09T07:24:10;23.40;99.90
17483;DHT22;8858;52.308;20.994;2023-07-09T07:26:38;23.50;99.90
17483;DHT22;8858;52.308;20.994;2023-07-09T07:29:12;23.50;99.90
17483;DHT22;8858;52.308;20.994;2023-07-09T07:31:42;23.50;99.90
17483;DHT22;8858;52.308;20.994;2023-07-09T07:34:10;23.60;99.90
17483;DHT22;8858;52.308;20.994;2023-07-09T07:36:38;23.60;99.90
17483;DHT22;8858;52.308;20.994;2023-07-09T07:39:09;23.70;99.90
17483;DHT22;8858;52.308;20.994;2023-07-09T07:41:42;23.60;99.90
17483;DHT22;8858;52.308;20.994;2023-07-09T07:44:10;23.70;99.90
17483;DHT22;8858;52.308;20.994;2023-07-09T07:46:38;23.60;99.90
17483;DHT22;8858;52.308;20.994;2023-07-09T07:49:08;23.60;99.90
17483;DHT22;8858;52.308;20.994;2023-07-09T07:51:36;23.60;99.90
17483;DHT22;8858;52.308;20.994;2023-07-09T07:54:06;23.60;99.90
17483;DHT22;8858;52.308;20.994;2023-07-09T07:56:35;23.60;99.90
17483;DHT22;8858;52.308;20.994;2023-07-09T07:59:07;23.70;99.90
17483;DHT22;8858;52.308;20.994;2023-07-09T08:01:35;23.70;99.90
17483;DHT22;8858;52.308;20.994;2023-07-09T08:04:04;23.70;99.90
17483;DHT22;8858;52.308;20.994;2023-07-09T08:06:38;23.80;99.90
17483;DHT22;8858;52.308;20.994;2023-07-09T08:09:06;23.90;99.90
17483;DHT22;8858;52.308;20.994;2023-07-09T08:11:34;24.00;99.90
17483;DHT22;8858;52.308;20.994;2023-07-09T08:14:03;24.00;99.90
17483;DHT22;8858;52.308;20.994;2023-07-09T08:16:31;24.00;99.90
17483;DHT22;8858;52.308;20.994;2023-07-09T08:19:00;23.90;99.90
17483;DHT22;8858;52.308;20.994;2023-07-09T08:21:29;23.90;99.90
17483;DHT22;8858;52.308;20.994;2023-07-09T08:23:58;23.90;99.90
17483;DHT22;8858;52.308;20.994;2023-07-09T08:26:27;23.90;99.90
17483;DHT22;8858;52.308;20.994;2023-07-09T08:28:55;23.90;99.90
17483;DHT22;8858;52.308;20.994;2023-07-09T08:31:24;24.00;99.90
17483;DHT22;8858;52.308;20.994;2023-07-09T08:33:52;24.00;99.90
17483;DHT22;8858;52.308;20.994;2023-07-09T08:36:20;24.20;99.90
17483;DHT22;8858;52.308;20.994;2023-07-09T08:38:52;24.30;99.90
17483;DHT22;8858;52.308;20.994;2023-07-09T08:41:35;24.30;99.90
17483;DHT22;8858;52.308;20.994;2023-07-09T08:44:17;24.40;99.90
17483;DHT22;8858;52.308;20.994;2023-07-09T08:47:00;24.40;99.90
17483;DHT22;8858;52.308;20.994;2023-07-09T08:49:35;24.40;99.90
17483;DHT22;8858;52.308;20.994;2023-07-09T08:52:12;24.50;99.90
17483;DHT22;8858;52.308;20.994;2023-07-09T08:54:43;24.50;99.90
17483;DHT22;8858;52.308;20.994;2023-07-09T08:57:22;24.50;99.90
17483;DHT22;8858;52.308;20.994;2023-07-09T09:00:01;24.60;99.90
17483;DHT22;8858;52.308;20.994;2023-07-09T09:02:49;24.60;99.90
17483;DHT22;8858;52.308;20.994;2023-07-09T09:05:21;24.70;99.90
17483;DHT22;8858;52.308;20.994;2023-07-09T09:07:53;24.70;99.90
17483;DHT22;8858;52.308;20.994;2023-07-09T09:10:32;24.80;99.90
17483;DHT22;8858;52.308;20.994;2023-07-09T09:13:13;24.90;99.90
17483;DHT22;8858;52.308;20.994;2023-07-09T09:15:44;24.90;99.90
17483;DHT22;8858;52.308;20.994;2023-07-09T09:18:22;25.00;99.90
17483;DHT22;8858;52.308;20.994;2023-07-09T09:20:57;25.20;99.90
17483;DHT22;8858;52.308;20.994;2023-07-09T09:23:29;25.30;99.90
17483;DHT22;8858;52.308;20.994;2023-07-09T09:26:00;25.30;99.90
17483;DHT22;8858;52.308;20.994;2023-07-09T09:28:41;25.30;99.90
17483;DHT22;8858;52.308;20.994;2023-07-09T09:31:11;25.40;99.90
17483;DHT22;8858;52.308;20.994;2023-07-09T09:33:44;25.40;99.90
17483;DHT22;8858;52.308;20.994;2023-07-09T09:36:16;25.50;99.90
17483;DHT22;8858;52.308;20.994;2023-07-09T09:38:44;25.50;99.90
17483;DHT22;8858;52.308;20.994;2023-07-09T09:41:14;25.60;99.90
17483;DHT22;8858;52.308;20.994;2023-07-09T09:43:45;25.60;99.30
17483;DHT22;8858;52.308;20.994;2023-07-09T09:46:21;25.70;99.00
17483;DHT22;8858;52.308;20.994;2023-07-09T09:48:55;25.70;99.30
17483;DHT22;8858;52.308;20.994;2023-07-09T09:51:29;25.80;97.00
17483;DHT22;8858;52.308;20.994;2023-07-09T09:54:00;25.70;97.10
17483;DHT22;8858;52.308;20.994;2023-07-09T09:56:35;25.70;97.80
17483;DHT22;8858;52.308;20.994;2023-07-09T09:59:17;25.70;98.20
17483;DHT22;8858;52.308;20.994;2023-07-09T10:01:46;25.80;97.40
17483;DHT22;8858;52.308;20.994;2023-07-09T10:04:18;25.80;98.60
17483;DHT22;8858;52.308;20.994;2023-07-09T10:06:51;25.80;97.30
17483;DHT22;8858;52.308;20.994;2023-07-09T10:09:30;25.80;98.30
17483;DHT22;8858;52.308;20.994;2023-07-09T10:12:10;25.80;97.50
17483;DHT22;8858;52.308;20.994;2023-07-09T10:14:49;25.90;98.00
17483;DHT22;8858;52.308;20.994;2023-07-09T10:17:29;26.00;97.30
17483;DHT22;8858;52.308;20.994;2023-07-09T10:20:06;26.10;96.00
17483;DHT22;8858;52.308;20.994;2023-07-09T10:22:43;26.10;97.00
17483;DHT22;8858;52.308;20.994;2023-07-09T10:25:31;26.20;96.80
17483;DHT22;8858;52.308;20.994;2023-07-09T10:31:09;26.20;94.50
17483;DHT22;8858;52.308;20.994;2023-07-09T10:33:53;26.20;94.70
17483;DHT22;8858;52.308;20.994;2023-07-09T10:36:33;26.30;94.80
17483;DHT22;8858;52.308;20.994;2023-07-09T10:39:08;26.30;94.30
17483;DHT22;8858;52.308;20.994;2023-07-09T10:41:40;26.30;94.40
17483;DHT22;8858;52.308;20.994;2023-07-09T10:44:22;26.30;94.00
17483;DHT22;8858;52.308;20.994;2023-07-09T10:47:00;26.30;93.80
17483;DHT22;8858;52.308;20.994;2023-07-09T10:49:37;26.30;94.10
17483;DHT22;8858;52.308;20.994;2023-07-09T10:52:13;26.40;93.80
17483;DHT22;8858;52.308;20.994;2023-07-09T10:54:52;26.50;93.30
17483;DHT22;8858;52.308;20.994;2023-07-09T10:57:30;26.50;93.50
17483;DHT22;8858;52.308;20.994;2023-07-09T11:00:01;26.60;93.50
17483;DHT22;8858;52.308;20.994;2023-07-09T11:02:35;26.60;93.70
17483;DHT22;8858;52.308;20.994;2023-07-09T11:05:06;26.70;94.10
17483;DHT22;8858;52.308;20.994;2023-07-09T11:07:38;26.70;93.20
17483;DHT22;8858;52.308;20.994;2023-07-09T11:10:17;26.80;93.40
17483;DHT22;8858;52.308;20.994;2023-07-09T11:12:55;27.00;93.70
17483;DHT22;8858;52.308;20.994;2023-07-09T11:15:31;27.10;92.40
17483;DHT22;8858;52.308;20.994;2023-07-09T11:18:06;27.20;92.60
17483;DHT22;8858;52.308;20.994;2023-07-09T11:20:41;27.40;92.10
17483;DHT22;8858;52.308;20.994;2023-07-09T11:23:18;27.50;93.30
17483;DHT22;8858;52.308;20.994;2023-07-09T11:25:49;27.70;91.80
17483;DHT22;8858;52.308;20.994;2023-07-09T11:28:33;27.70;91.50
17483;DHT22;8858;52.308;20.994;2023-07-09T11:31:05;27.80;91.90
17483;DHT22;8858;52.308;20.994;2023-07-09T11:33:46;27.90;90.90
17483;DHT22;8858;52.308;20.994;2023-07-09T11:36:25;28.10;90.90
17483;DHT22;8858;52.308;20.994;2023-07-09T11:38:56;28.30;90.40
17483;DHT22;8858;52.308;20.994;2023-07-09T11:41:39;28.40;90.50
17483;DHT22;8858;52.308;20.994;2023-07-09T11:44:15;28.50;90.10
17483;DHT22;8858;52.308;20.994;2023-07-09T11:47:01;28.60;86.40
17483;DHT22;8858;52.308;20.994;2023-07-09T11:49:48;28.60;86.80
17483;DHT22;8858;52.308;20.994;2023-07-09T11:52:22;28.60;86.40
17483;DHT22;8858;52.308;20.994;2023-07-09T11:54:53;28.70;85.90
17483;DHT22;8858;52.308;20.994;2023-07-09T11:57:24;28.80;87.10
17483;DHT22;8858;52.308;20.994;2023-07-09T11:59:59;28.90;86.50
17483;DHT22;8858;52.308;20.994;2023-07-09T12:02:38;29.00;86.80
17483;DHT22;8858;52.308;20.994;2023-07-09T12:05:09;29.00;85.20
17483;DHT22;8858;52.308;20.994;2023-07-09T12:07:38;29.00;86.30
17483;DHT22;8858;52.308;20.994;2023-07-09T12:10:21;29.10;88.00
17483;DHT22;8858;52.308;20.994;2023-07-09T12:12:54;29.40;89.00
17483;DHT22;8858;52.308;20.994;2023-07-09T12:15:25;29.60;88.30
17483;DHT22;8858;52.308;20.994;2023-07-09T12:17:59;29.90;88.90
17483;DHT22;8858;52.308;20.994;2023-07-09T12:20:34;30.10;88.40
17483;DHT22;8858;52.308;20.994;2023-07-09T12:23:10;30.30;87.80
17483;DHT22;8858;52.308;20.994;2023-07-09T12:25:47;30.60;87.50
17483;DHT22;8858;52.308;20.994;2023-07-09T12:28:17;30.80;86.60
17483;DHT22;8858;52.308;20.994;2023-07-09T12:30:46;30.90;85.30
17483;DHT22;8858;52.308;20.994;2023-07-09T12:33:17;31.10;84.10
17483;DHT22;8858;52.308;20.994;2023-07-09T12:35:55;31.10;84.10
17483;DHT22;8858;52.308;20.994;2023-07-09T12:38:26;31.30;83.90
17483;DHT22;8858;52.308;20.994;2023-07-09T12:40:55;31.50;82.30
17483;DHT22;8858;52.308;20.994;2023-07-09T12:43:30;31.60;83.50
17483;DHT22;8858;52.308;20.994;2023-07-09T12:45:59;31.80;81.90
17483;DHT22;8858;52.308;20.994;2023-07-09T12:48:29;32.00;82.10
17483;DHT22;8858;52.308;20.994;2023-07-09T12:51:00;32.20;82.80
17483;DHT22;8858;52.308;20.994;2023-07-09T12:53:29;32.40;79.20
17483;DHT22;8858;52.308;20.994;2023-07-09T12:56:00;32.60;78.60
17483;DHT22;8858;52.308;20.994;2023-07-09T12:58:36;32.70;78.40
17483;DHT22;8858;52.308;20.994;2023-07-09T13:01:14;32.80;78.80
17483;DHT22;8858;52.308;20.994;2023-07-09T13:03:53;33.00;77.10
17483;DHT22;8858;52.308;20.994;2023-07-09T13:06:29;33.10;78.30
17483;DHT22;8858;52.308;20.994;2023-07-09T13:08:59;33.30;76.20
17483;DHT22;8858;52.308;20.994;2023-07-09T13:11:33;33.40;76.20
17483;DHT22;8858;52.308;20.994;2023-07-09T13:14:03;33.60;74.40
17483;DHT22;8858;52.308;20.994;2023-07-09T13:16:38;33.80;75.60
17483;DHT22;8858;52.308;20.994;2023-07-09T13:19:11;34.10;74.90
17483;DHT22;8858;52.308;20.994;2023-07-09T13:21:41;34.40;74.80
17483;DHT22;8858;52.308;20.994;2023-07-09T13:24:14;34.60;69.80
17483;DHT22;8858;52.308;20.994;2023-07-09T13:26:44;35.00;70.70
17483;DHT22;8858;52.308;20.994;2023-07-09T13:29:14;35.90;69.20
17483;DHT22;8858;52.308;20.994;2023-07-09T13:31:45;37.20;65.70
17483;DHT22;8858;52.308;20.994;2023-07-09T13:34:21;38.80;64.90
17483;DHT22;8858;52.308;20.994;2023-07-09T13:36:53;40.40;60.40
17483;DHT22;8858;52.308;20.994;2023-07-09T13:39:24;41.80;58.80
17483;DHT22;8858;52.308;20.994;2023-07-09T13:41:55;42.90;55.20
17483;DHT22;8858;52.308;20.994;2023-07-09T13:44:25;44.40;54.40
17483;DHT22;8858;52.308;20.994;2023-07-09T13:46:56;45.60;53.30
17483;DHT22;8858;52.308;20.994;2023-07-09T13:49:26;46.80;51.20
17483;DHT22;8858;52.308;20.994;2023-07-09T13:51:59;47.90;50.60
17483;DHT22;8858;52.308;20.994;2023-07-09T13:54:30;48.90;48.50
17483;DHT22;8858;52.308;20.994;2023-07-09T13:57:06;49.70;47.50
17483;DHT22;8858;52.308;20.994;2023-07-09T13:59:35;50.60;45.80
17483;DHT22;8858;52.308;20.994;2023-07-09T14:02:19;51.40;44.80
17483;DHT22;8858;52.308;20.994;2023-07-09T14:04:50;52.40;43.90
17483;DHT22;8858;52.308;20.994;2023-07-09T14:07:25;53.00;43.00
17483;DHT22;8858;52.308;20.994;2023-07-09T14:09:54;53.60;42.50
17483;DHT22;8858;52.308;20.994;2023-07-09T14:12:22;53.70;41.80
17483;DHT22;8858;52.308;20.994;2023-07-09T14:14:52;54.00;40.70
17483;DHT22;8858;52.308;20.994;2023-07-09T14:17:24;53.80;39.90
17483;DHT22;8858;52.308;20.994;2023-07-09T14:19:54;53.70;40.10
17483;DHT22;8858;52.308;20.994;2023-07-09T14:22:30;53.80;40.80
17483;DHT22;8858;52.308;20.994;2023-07-09T14:25:04;53.80;39.70
17483;DHT22;8858;52.308;20.994;2023-07-09T14:27:33;53.70;39.90
17483;DHT22;8858;52.308;20.994;2023-07-09T14:30:01;53.90;39.40
17483;DHT22;8858;52.308;20.994;2023-07-09T14:32:34;54.00;39.50
17483;DHT22;8858;52.308;20.994;2023-07-09T14:35:09;54.60;39.60
17483;DHT22;8858;52.308;20.994;2023-07-09T14:37:39;54.90;38.90
17483;DHT22;8858;52.308;20.994;2023-07-09T14:40:08;54.60;38.50
17483;DHT22;8858;52.308;20.994;2023-07-09T14:42:37;54.00;39.30
17483;DHT22;8858;52.308;20.994;2023-07-09T14:45:17;54.00;39.20
17483;DHT22;8858;52.308;20.994;2023-07-09T14:47:47;54.50;39.70
17483;DHT22;8858;52.308;20.994;2023-07-09T14:50:15;55.20;39.40
17483;DHT22;8858;52.308;20.994;2023-07-09T14:52:47;55.20;38.40
17483;DHT22;8858;52.308;20.994;2023-07-09T14:55:17;55.00;39.00
17483;DHT22;8858;52.308;20.994;2023-07-09T14:57:47;54.30;38.30
17483;DHT22;8858;52.308;20.994;2023-07-09T15:00:18;53.90;38.70
17483;DHT22;8858;52.308;20.994;2023-07-09T15:02:51;53.60;39.20
17483;DHT22;8858;52.308;20.994;2023-07-09T15:05:24;52.00;39.20
17483;DHT22;8858;52.308;20.994;2023-07-09T15:07:55;50.20;41.20
17483;DHT22;8858;52.308;20.994;2023-07-09T15:10:25;49.60;41.70
17483;DHT22;8858;52.308;20.994;2023-07-09T15:12:55;50.30;41.60
17483;DHT22;8858;52.308;20.994;2023-07-09T15:15:30;51.40;40.70
17483;DHT22;8858;52.308;20.994;2023-07-09T15:18:00;52.30;39.50
17483;DHT22;8858;52.308;20.994;2023-07-09T15:20:36;52.60;39.20
17483;DHT22;8858;52.308;20.994;2023-07-09T15:23:09;52.70;39.00
17483;DHT22;8858;52.308;20.994;2023-07-09T15:25:37;53.20;39.20
17483;DHT22;8858;52.308;20.994;2023-07-09T15:28:09;53.40;39.00
17483;DHT22;8858;52.308;20.994;2023-07-09T15:30:38;53.60;39.10
17483;DHT22;8858;52.308;20.994;2023-07-09T15:33:13;52.90;39.10
17483;DHT22;8858;52.308;20.994;2023-07-09T15:35:44;52.40;39.40
17483;DHT22;8858;52.308;20.994;2023-07-09T15:38:29;50.60;39.70
17483;DHT22;8858;52.308;20.994;2023-07-09T15:40:59;48.20;40.90
17483;DHT22;8858;52.308;20.994;2023-07-09T15:43:31;46.10;42.30
17483;DHT22;8858;52.308;20.994;2023-07-09T15:46:00;45.70;42.30
17483;DHT22;8858;52.308;20.994;2023-07-09T15:48:31;46.50;41.90
17483;DHT22;8858;52.308;20.994;2023-07-09T15:51:01;47.60;41.60
17483;DHT22;8858;52.308;20.994;2023-07-09T15:53:32;48.90;42.00
17483;DHT22;8858;52.308;20.994;2023-07-09T15:56:02;49.90;40.90
17483;DHT22;8858;52.308;20.994;2023-07-09T15:58:35;50.50;40.70
17483;DHT22;8858;52.308;20.994;2023-07-09T16:01:10;50.70;40.70
17483;DHT22;8858;52.308;20.994;2023-07-09T16:03:49;51.00;40.50